sensor_id;sensor_type;location;lat;lon;timestamp;P1;durP1;ratioP1;P2;durP2;ratioP2
41311;SDS011;27061;41.648;24.568;2023-07-28T00:01:45;14.55;;;3.20;;
41311;SDS011;27061;41.648;24.568;2023-07-28T00:04:12;35.22;;;4.90;;
41311;SDS011;27061;41.648;24.568;2023-07-28T00:06:39;21.13;;;3.42;;
41311;SDS011;27061;41.648;24.568;2023-07-28T00:09:07;14.18;;;2.63;;
41311;SDS011;27061;41.648;24.568;2023-07-28T00:11:35;23.10;;;3.90;;
41311;SDS011;27061;41.648;24.568;2023-07-28T00:14:02;13.07;;;2.85;;
41311;SDS011;27061;41.648;24.568;2023-07-28T00:16:29;26.02;;;3.05;;
41311;SDS011;27061;41.648;24.568;2023-07-28T00:18:57;57.58;;;5.00;;
41311;SDS011;27061;41.648;24.568;2023-07-28T00:21:24;17.48;;;3.13;;
41311;SDS011;27061;41.648;24.568;2023-07-28T00:23:53;38.63;;;4.07;;
41311;SDS011;27061;41.648;24.568;2023-07-28T00:26:20;25.33;;;4.28;;
41311;SDS011;27061;41.648;24.568;2023-07-28T00:28:48;4.35;;;2.67;;
41311;SDS011;27061;41.648;24.568;2023-07-28T00:31:16;25.83;;;4.13;;
41311;SDS011;27061;41.648;24.568;2023-07-28T00:33:43;14.30;;;2.95;;
41311;SDS011;27061;41.648;24.568;2023-07-28T00:36:10;48.42;;;6.00;;
41311;SDS011;27061;41.648;24.568;2023-07-28T00:38:38;18.42;;;3.15;;
41311;SDS011;27061;41.648;24.568;2023-07-28T00:41:05;18.08;;;3.10;;
41311;SDS011;27061;41.648;24.568;2023-07-28T00:43:32;19.13;;;3.30;;
41311;SDS011;27061;41.648;24.568;2023-07-28T00:46:00;29.75;;;3.85;;
41311;SDS011;27061;41.648;24.568;2023-07-28T00:48:27;19.80;;;3.50;;
41311;SDS011;27061;41.648;24.568;2023-07-28T00:50:54;6.63;;;2.63;;
41311;SDS011;27061;41.648;24.568;2023-07-28T00:53:23;16.80;;;3.03;;
41311;SDS011;27061;41.648;24.568;2023-07-28T00:55:51;9.43;;;3.63;;
41311;SDS011;27061;41.648;24.568;2023-07-28T00:58:18;6.88;;;2.65;;
41311;SDS011;27061;41.648;24.568;2023-07-28T01:00:46;13.27;;;2.95;;
41311;SDS011;27061;41.648;24.568;2023-07-28T01:03:17;11.75;;;2.78;;
41311;SDS011;27061;41.648;24.568;2023-07-28T01:05:53;2.50;;;2.40;;
41311;SDS011;27061;41.648;24.568;2023-07-28T01:10:59;8.85;;;2.67;;
41311;SDS011;27061;41.648;24.568;2023-07-28T01:13:30;4.50;;;2.90;;
41311;SDS011;27061;41.648;24.568;2023-07-28T01:15:57;3.22;;;2.80;;
41311;SDS011;27061;41.648;24.568;2023-07-28T01:18:27;9.13;;;3.10;;
41311;SDS011;27061;41.648;24.568;2023-07-28T01:20:56;29.30;;;3.85;;
41311;SDS011;27061;41.648;24.568;2023-07-28T01:26:34;27.23;;;3.70;;
41311;SDS011;27061;41.648;24.568;2023-07-28T01:29:07;38.20;;;4.45;;
41311;SDS011;27061;41.648;24.568;2023-07-28T01:31:37;10.65;;;3.15;;
41311;SDS011;27061;41.648;24.568;2023-07-28T01:34:05;30.67;;;4.45;;
41311;SDS011;27061;41.648;24.568;2023-07-28T01:36:34;32.47;;;3.45;;
41311;SDS011;27061;41.648;24.568;2023-07-28T01:39:02;9.40;;;2.90;;
41311;SDS011;27061;41.648;24.568;2023-07-28T01:41:29;7.88;;;2.45;;
41311;SDS011;27061;41.648;24.568;2023-07-28T01:43:56;6.53;;;3.15;;
41311;SDS011;27061;41.648;24.568;2023-07-28T01:46:24;3.38;;;3.15;;
41311;SDS011;27061;41.648;24.568;2023-07-28T01:48:51;26.73;;;5.60;;
41311;SDS011;27061;41.648;24.568;2023-07-28T01:51:19;5.28;;;2.78;;
41311;SDS011;27061;41.648;24.568;2023-07-28T01:53:46;2.95;;;2.75;;
41311;SDS011;27061;41.648;24.568;2023-07-28T01:56:13;11.07;;;3.03;;
41311;SDS011;27061;41.648;24.568;2023-07-28T01:58:41;6.05;;;3.33;;
41311;SDS011;27061;41.648;24.568;2023-07-28T02:01:09;3.47;;;2.80;;
41311;SDS011;27061;41.648;24.568;2023-07-28T02:03:39;7.35;;;2.65;;
41311;SDS011;27061;41.648;24.568;2023-07-28T02:06:06;4.60;;;3.35;;
41311;SDS011;27061;41.648;24.568;2023-07-28T02:08:33;7.72;;;2.63;;
41311;SDS011;27061;41.648;24.568;2023-07-28T02:11:02;6.07;;;2.92;;
41311;SDS011;27061;41.648;24.568;2023-07-28T02:13:30;9.10;;;2.80;;
41311;SDS011;27061;41.648;24.568;2023-07-28T02:15:57;3.00;;;2.78;;
41311;SDS011;27061;41.648;24.568;2023-07-28T02:18:24;3.05;;;2.85;;
41311;SDS011;27061;41.648;24.568;2023-07-28T02:20:52;5.97;;;2.92;;
41311;SDS011;27061;41.648;24.568;2023-07-28T02:23:19;4.43;;;2.70;;
41311;SDS011;27061;41.648;24.568;2023-07-28T02:25:46;18.65;;;3.50;;
41311;SDS011;27061;41.648;24.568;2023-07-28T02:28:13;21.73;;;4.28;;
41311;SDS011;27061;41.648;24.568;2023-07-28T02:30:41;13.85;;;3.70;;
41311;SDS011;27061;41.648;24.568;2023-07-28T02:33:08;13.95;;;3.22;;
41311;SDS011;27061;41.648;24.568;2023-07-28T02:35:36;8.15;;;3.17;;
41311;SDS011;27061;41.648;24.568;2023-07-28T02:38:03;2.83;;;2.65;;
41311;SDS011;27061;41.648;24.568;2023-07-28T02:40:32;4.75;;;2.95;;
41311;SDS011;27061;41.648;24.568;2023-07-28T02:43:00;4.93;;;2.95;;
41311;SDS011;27061;41.648;24.568;2023-07-28T02:45:27;3.20;;;3.00;;
41311;SDS011;27061;41.648;24.568;2023-07-28T02:47:54;5.35;;;3.10;;
41311;SDS011;27061;41.648;24.568;2023-07-28T02:50:24;14.85;;;3.47;;
41311;SDS011;27061;41.648;24.568;2023-07-28T02:52:51;10.85;;;3.75;;
41311;SDS011;27061;41.648;24.568;2023-07-28T02:55:19;3.22;;;2.65;;
41311;SDS011;27061;41.648;24.568;2023-07-28T02:57:47;4.20;;;3.03;;
41311;SDS011;27061;41.648;24.568;2023-07-28T03:00:14;2.88;;;2.78;;
41311;SDS011;27061;41.648;24.568;2023-07-28T03:02:41;7.20;;;3.00;;
41311;SDS011;27061;41.648;24.568;2023-07-28T03:05:09;4.88;;;3.00;;
41311;SDS011;27061;41.648;24.568;2023-07-28T03:07:43;10.73;;;3.40;;
41311;SDS011;27061;41.648;24.568;2023-07-28T03:10:14;21.77;;;3.63;;
41311;SDS011;27061;41.648;24.568;2023-07-28T03:12:43;22.25;;;3.83;;
41311;SDS011;27061;41.648;24.568;2023-07-28T03:15:10;10.60;;;3.33;;
41311;SDS011;27061;41.648;24.568;2023-07-28T03:17:38;4.60;;;3.03;;
41311;SDS011;27061;41.648;24.568;2023-07-28T03:20:06;19.48;;;3.08;;
41311;SDS011;27061;41.648;24.568;2023-07-28T03:22:33;8.05;;;3.20;;
41311;SDS011;27061;41.648;24.568;2023-07-28T03:25:00;15.68;;;3.67;;
41311;SDS011;27061;41.648;24.568;2023-07-28T03:27:28;16.00;;;3.47;;
41311;SDS011;27061;41.648;24.568;2023-07-28T03:29:56;37.33;;;5.13;;
41311;SDS011;27061;41.648;24.568;2023-07-28T03:32:24;23.88;;;3.60;;
41311;SDS011;27061;41.648;24.568;2023-07-28T03:34:51;48.15;;;6.00;;
41311;SDS011;27061;41.648;24.568;2023-07-28T03:37:19;20.77;;;3.80;;
41311;SDS011;27061;41.648;24.568;2023-07-28T03:39:46;58.15;;;5.82;;
41311;SDS011;27061;41.648;24.568;2023-07-28T03:42:14;42.63;;;4.35;;
41311;SDS011;27061;41.648;24.568;2023-07-28T03:44:42;28.63;;;4.43;;
41311;SDS011;27061;41.648;24.568;2023-07-28T03:47:09;7.82;;;2.75;;
41311;SDS011;27061;41.648;24.568;2023-07-28T03:49:36;28.17;;;4.63;;
41311;SDS011;27061;41.648;24.568;2023-07-28T03:52:04;33.63;;;4.20;;
41311;SDS011;27061;41.648;24.568;2023-07-28T03:54:31;25.95;;;3.35;;
41311;SDS011;27061;41.648;24.568;2023-07-28T03:57:01;17.52;;;3.67;;
41311;SDS011;27061;41.648;24.568;2023-07-28T03:59:28;52.55;;;11.63;;
41311;SDS011;27061;41.648;24.568;2023-07-28T04:01:55;23.27;;;5.80;;
41311;SDS011;27061;41.648;24.568;2023-07-28T04:04:22;51.65;;;5.60;;
41311;SDS011;27061;41.648;24.568;2023-07-28T04:06:50;7.13;;;3.10;;
41311;SDS011;27061;41.648;24.568;2023-07-28T04:09:18;76.07;;;5.93;;
41311;SDS011;27061;41.648;24.568;2023-07-28T04:11:46;12.63;;;3.20;;
41311;SDS011;27061;41.648;24.568;2023-07-28T04:14:14;5.22;;;2.58;;
41311;SDS011;27061;41.648;24.568;2023-07-28T04:16:41;82.13;;;8.90;;
41311;SDS011;27061;41.648;24.568;2023-07-28T04:19:08;3.25;;;2.95;;
41311;SDS011;27061;41.648;24.568;2023-07-28T04:21:36;28.65;;;4.28;;
41311;SDS011;27061;41.648;24.568;2023-07-28T04:24:08;11.02;;;3.35;;
41311;SDS011;27061;41.648;24.568;2023-07-28T04:26:41;15.77;;;3.63;;
41311;SDS011;27061;41.648;24.568;2023-07-28T04:29:10;10.82;;;4.07;;
41311;SDS011;27061;41.648;24.568;2023-07-28T04:31:38;5.15;;;3.05;;
41311;SDS011;27061;41.648;24.568;2023-07-28T04:44:28;36.63;;;5.68;;
41311;SDS011;27061;41.648;24.568;2023-07-28T04:47:00;4.22;;;3.17;;
41311;SDS011;27061;41.648;24.568;2023-07-28T04:49:27;109.95;;;8.85;;
41311;SDS011;27061;41.648;24.568;2023-07-28T04:52:23;39.83;;;5.47;;
41311;SDS011;27061;41.648;24.568;2023-07-28T04:55:18;19.95;;;4.15;;
41311;SDS011;27061;41.648;24.568;2023-07-28T04:57:45;81.18;;;8.57;;
41311;SDS011;27061;41.648;24.568;2023-07-28T05:00:13;11.27;;;3.45;;
41311;SDS011;27061;41.648;24.568;2023-07-28T05:02:43;47.47;;;5.47;;
41311;SDS011;27061;41.648;24.568;2023-07-28T05:05:10;45.00;;;5.82;;
41311;SDS011;27061;41.648;24.568;2023-07-28T05:07:37;44.90;;;5.95;;
41311;SDS011;27061;41.648;24.568;2023-07-28T05:10:10;37.70;;;5.40;;
41311;SDS011;27061;41.648;24.568;2023-07-28T05:12:37;54.10;;;5.57;;
41311;SDS011;27061;41.648;24.568;2023-07-28T05:15:05;31.05;;;4.68;;
41311;SDS011;27061;41.648;24.568;2023-07-28T05:17:35;20.80;;;3.63;;
41311;SDS011;27061;41.648;24.568;2023-07-28T05:20:22;86.15;;;7.03;;
41311;SDS011;27061;41.648;24.568;2023-07-28T05:23:03;14.13;;;3.35;;
41311;SDS011;27061;41.648;24.568;2023-07-28T05:25:30;5.10;;;2.58;;
41311;SDS011;27061;41.648;24.568;2023-07-28T05:27:57;45.65;;;6.25;;
41311;SDS011;27061;41.648;24.568;2023-07-28T05:30:26;56.88;;;6.30;;
41311;SDS011;27061;41.648;24.568;2023-07-28T05:32:58;94.85;;;7.03;;
41311;SDS011;27061;41.648;24.568;2023-07-28T05:35:47;51.50;;;5.43;;
41311;SDS011;27061;41.648;24.568;2023-07-28T05:38:14;70.50;;;5.40;;
41311;SDS011;27061;41.648;24.568;2023-07-28T05:40:41;38.60;;;4.40;;
41311;SDS011;27061;41.648;24.568;2023-07-28T05:43:08;53.63;;;5.28;;
41311;SDS011;27061;41.648;24.568;2023-07-28T05:45:36;44.10;;;5.20;;
41311;SDS011;27061;41.648;24.568;2023-07-28T05:48:05;11.32;;;2.80;;
41311;SDS011;27061;41.648;24.568;2023-07-28T05:50:32;6.53;;;2.63;;
41311;SDS011;27061;41.648;24.568;2023-07-28T05:53:04;3.80;;;2.80;;
41311;SDS011;27061;41.648;24.568;2023-07-28T05:55:32;4.45;;;2.70;;
41311;SDS011;27061;41.648;24.568;2023-07-28T05:57:59;10.65;;;2.55;;
41311;SDS011;27061;41.648;24.568;2023-07-28T06:00:26;6.50;;;2.22;;
41311;SDS011;27061;41.648;24.568;2023-07-28T06:02:55;3.20;;;2.30;;
41311;SDS011;27061;41.648;24.568;2023-07-28T06:05:43;2.35;;;2.15;;
41311;SDS011;27061;41.648;24.568;2023-07-28T06:08:10;6.57;;;2.50;;
41311;SDS011;27061;41.648;24.568;2023-07-28T06:10:37;33.10;;;4.03;;
41311;SDS011;27061;41.648;24.568;2023-07-28T06:13:04;5.15;;;2.20;;
41311;SDS011;27061;41.648;24.568;2023-07-28T06:15:32;4.70;;;1.90;;
41311;SDS011;27061;41.648;24.568;2023-07-28T06:18:02;10.95;;;2.08;;
41311;SDS011;27061;41.648;24.568;2023-07-28T06:20:30;1.98;;;1.83;;
41311;SDS011;27061;41.648;24.568;2023-07-28T06:22:57;2.22;;;2.13;;
41311;SDS011;27061;41.648;24.568;2023-07-28T06:25:24;1.88;;;1.77;;
41311;SDS011;27061;41.648;24.568;2023-07-28T06:27:52;1.67;;;1.58;;
41311;SDS011;27061;41.648;24.568;2023-07-28T06:30:19;1.52;;;1.52;;
41311;SDS011;27061;41.648;24.568;2023-07-28T06:32:47;1.80;;;1.70;;
41311;SDS011;27061;41.648;24.568;2023-07-28T06:35:14;2.40;;;2.20;;
41311;SDS011;27061;41.648;24.568;2023-07-28T06:37:41;4.65;;;1.63;;
41311;SDS011;27061;41.648;24.568;2023-07-28T06:40:09;5.05;;;1.90;;
41311;SDS011;27061;41.648;24.568;2023-07-28T06:42:36;1.80;;;1.70;;
41311;SDS011;27061;41.648;24.568;2023-07-28T06:45:06;1.40;;;1.40;;
41311;SDS011;27061;41.648;24.568;2023-07-28T06:47:34;2.03;;;1.52;;
41311;SDS011;27061;41.648;24.568;2023-07-28T06:50:01;2.72;;;1.65;;
41311;SDS011;27061;41.648;24.568;2023-07-28T06:52:29;2.33;;;2.13;;
41311;SDS011;27061;41.648;24.568;2023-07-28T06:54:56;2.15;;;2.00;;
41311;SDS011;27061;41.648;24.568;2023-07-28T06:57:23;3.08;;;1.50;;
41311;SDS011;27061;41.648;24.568;2023-07-28T06:59:50;3.80;;;1.55;;
41311;SDS011;27061;41.648;24.568;2023-07-28T07:02:18;1.70;;;1.60;;
41311;SDS011;27061;41.648;24.568;2023-07-28T07:04:45;4.88;;;1.92;;
41311;SDS011;27061;41.648;24.568;2023-07-28T07:07:12;6.05;;;1.80;;
41311;SDS011;27061;41.648;24.568;2023-07-28T07:09:39;1.88;;;1.77;;
41311;SDS011;27061;41.648;24.568;2023-07-28T07:12:10;1.50;;;1.40;;
41311;SDS011;27061;41.648;24.568;2023-07-28T07:14:37;7.07;;;1.92;;
41311;SDS011;27061;41.648;24.568;2023-07-28T07:17:05;4.70;;;1.80;;
41311;SDS011;27061;41.648;24.568;2023-07-28T07:19:33;8.52;;;1.80;;
41311;SDS011;27061;41.648;24.568;2023-07-28T07:22:00;2.88;;;1.50;;
41311;SDS011;27061;41.648;24.568;2023-07-28T07:24:28;4.63;;;1.90;;
41311;SDS011;27061;41.648;24.568;2023-07-28T07:26:55;4.78;;;1.90;;
41311;SDS011;27061;41.648;24.568;2023-07-28T07:29:23;12.77;;;1.80;;
41311;SDS011;27061;41.648;24.568;2023-07-28T07:31:50;1.48;;;1.38;;
41311;SDS011;27061;41.648;24.568;2023-07-28T07:34:22;2.00;;;1.90;;
41311;SDS011;27061;41.648;24.568;2023-07-28T07:36:50;15.02;;;1.75;;
41311;SDS011;27061;41.648;24.568;2023-07-28T07:39:17;4.75;;;1.95;;
41311;SDS011;27061;41.648;24.568;2023-07-28T07:41:47;2.20;;;2.00;;
41311;SDS011;27061;41.648;24.568;2023-07-28T07:44:14;2.10;;;1.42;;
41311;SDS011;27061;41.648;24.568;2023-07-28T07:46:42;1.63;;;1.52;;
41311;SDS011;27061;41.648;24.568;2023-07-28T07:49:12;1.55;;;1.45;;
41311;SDS011;27061;41.648;24.568;2023-07-28T07:51:39;9.20;;;1.70;;
41311;SDS011;27061;41.648;24.568;2023-07-28T07:54:07;5.53;;;1.38;;
41311;SDS011;27061;41.648;24.568;2023-07-28T07:56:34;1.73;;;1.63;;
41311;SDS011;27061;41.648;24.568;2023-07-28T07:59:01;6.97;;;2.10;;
41311;SDS011;27061;41.648;24.568;2023-07-28T08:01:29;6.15;;;1.70;;
41311;SDS011;27061;41.648;24.568;2023-07-28T08:03:57;4.80;;;1.67;;
41311;SDS011;27061;41.648;24.568;2023-07-28T08:06:24;1.50;;;1.40;;
41311;SDS011;27061;41.648;24.568;2023-07-28T08:08:51;14.40;;;1.30;;
41311;SDS011;27061;41.648;24.568;2023-07-28T08:11:19;2.55;;;1.92;;
41311;SDS011;27061;41.648;24.568;2023-07-28T08:13:46;4.88;;;1.60;;
41311;SDS011;27061;41.648;24.568;2023-07-28T08:16:15;5.25;;;1.48;;
41311;SDS011;27061;41.648;24.568;2023-07-28T08:18:42;2.70;;;1.33;;
41311;SDS011;27061;41.648;24.568;2023-07-28T08:21:09;6.63;;;1.88;;
41311;SDS011;27061;41.648;24.568;2023-07-28T08:23:37;1.60;;;1.50;;
41311;SDS011;27061;41.648;24.568;2023-07-28T08:26:04;1.50;;;1.40;;
41311;SDS011;27061;41.648;24.568;2023-07-28T08:28:31;4.47;;;1.38;;
41311;SDS011;27061;41.648;24.568;2023-07-28T08:30:59;1.45;;;1.35;;
41311;SDS011;27061;41.648;24.568;2023-07-28T08:33:26;4.32;;;1.80;;
41311;SDS011;27061;41.648;24.568;2023-07-28T08:35:54;1.50;;;1.40;;
41311;SDS011;27061;41.648;24.568;2023-07-28T08:38:21;4.13;;;1.80;;
41311;SDS011;27061;41.648;24.568;2023-07-28T08:40:48;7.13;;;1.50;;
41311;SDS011;27061;41.648;24.568;2023-07-28T08:43:15;1.55;;;1.20;;
41311;SDS011;27061;41.648;24.568;2023-07-28T08:45:42;1.73;;;1.48;;
41311;SDS011;27061;41.648;24.568;2023-07-28T08:48:10;1.52;;;1.50;;
41311;SDS011;27061;41.648;24.568;2023-07-28T08:50:38;1.48;;;1.38;;
41311;SDS011;27061;41.648;24.568;2023-07-28T08:53:06;2.03;;;1.45;;
41311;SDS011;27061;41.648;24.568;2023-07-28T08:55:33;1.50;;;1.40;;
41311;SDS011;27061;41.648;24.568;2023-07-28T08:58:13;4.40;;;1.95;;
41311;SDS011;27061;41.648;24.568;2023-07-28T09:00:48;4.80;;;1.75;;
41311;SDS011;27061;41.648;24.568;2023-07-28T09:03:17;1.52;;;1.30;;
41311;SDS011;27061;41.648;24.568;2023-07-28T09:05:45;1.60;;;1.50;;
41311;SDS011;27061;41.648;24.568;2023-07-28T09:08:14;2.20;;;1.30;;
41311;SDS011;27061;41.648;24.568;2023-07-28T09:10:45;1.35;;;1.27;;
41311;SDS011;27061;41.648;24.568;2023-07-28T09:13:18;1.40;;;1.40;;
41311;SDS011;27061;41.648;24.568;2023-07-28T09:15:46;2.88;;;1.40;;
41311;SDS011;27061;41.648;24.568;2023-07-28T09:18:15;1.67;;;1.58;;
41311;SDS011;27061;41.648;24.568;2023-07-28T09:20:43;3.75;;;1.33;;
41311;SDS011;27061;41.648;24.568;2023-07-28T09:23:12;1.92;;;1.50;;
41311;SDS011;27061;41.648;24.568;2023-07-28T09:25:41;3.03;;;1.60;;
41311;SDS011;27061;41.648;24.568;2023-07-28T09:28:08;1.33;;;1.33;;
41311;SDS011;27061;41.648;24.568;2023-07-28T09:30:46;1.63;;;1.52;;
41311;SDS011;27061;41.648;24.568;2023-07-28T09:33:29;2.95;;;1.77;;
41311;SDS011;27061;41.648;24.568;2023-07-28T09:36:04;3.60;;;1.40;;
41311;SDS011;27061;41.648;24.568;2023-07-28T09:38:38;6.00;;;1.48;;
41311;SDS011;27061;41.648;24.568;2023-07-28T09:41:08;1.23;;;1.23;;
41311;SDS011;27061;41.648;24.568;2023-07-28T09:43:37;2.15;;;1.52;;
41311;SDS011;27061;41.648;24.568;2023-07-28T09:46:07;1.98;;;1.88;;
41311;SDS011;27061;41.648;24.568;2023-07-28T09:48:37;3.67;;;1.70;;
41311;SDS011;27061;41.648;24.568;2023-07-28T09:51:11;3.97;;;1.88;;
41311;SDS011;27061;41.648;24.568;2023-07-28T09:53:44;1.73;;;1.48;;
41311;SDS011;27061;41.648;24.568;2023-07-28T09:56:15;1.77;;;1.65;;
41311;SDS011;27061;41.648;24.568;2023-07-28T09:58:49;1.50;;;1.40;;
41311;SDS011;27061;41.648;24.568;2023-07-28T10:01:18;1.60;;;1.50;;
41311;SDS011;27061;41.648;24.568;2023-07-28T10:03:46;5.78;;;1.33;;
41311;SDS011;27061;41.648;24.568;2023-07-28T10:06:13;4.80;;;1.80;;
41311;SDS011;27061;41.648;24.568;2023-07-28T10:08:43;2.25;;;1.50;;
41311;SDS011;27061;41.648;24.568;2023-07-28T10:11:17;7.50;;;1.65;;
41311;SDS011;27061;41.648;24.568;2023-07-28T10:13:45;1.50;;;1.30;;
41311;SDS011;27061;41.648;24.568;2023-07-28T10:16:13;4.13;;;1.58;;
41311;SDS011;27061;41.648;24.568;2023-07-28T10:18:53;1.48;;;1.38;;
41311;SDS011;27061;41.648;24.568;2023-07-28T10:21:21;10.55;;;1.80;;
41311;SDS011;27061;41.648;24.568;2023-07-28T10:23:55;39.58;;;2.83;;
41311;SDS011;27061;41.648;24.568;2023-07-28T10:29:24;5.00;;;2.22;;
41311;SDS011;27061;41.648;24.568;2023-07-28T10:31:54;1.85;;;1.40;;
41311;SDS011;27061;41.648;24.568;2023-07-28T10:34:23;1.55;;;1.45;;
41311;SDS011;27061;41.648;24.568;2023-07-28T10:36:57;4.30;;;1.75;;
41311;SDS011;27061;41.648;24.568;2023-07-28T10:39:25;1.85;;;1.67;;
41311;SDS011;27061;41.648;24.568;2023-07-28T10:42:03;1.50;;;1.40;;
41311;SDS011;27061;41.648;24.568;2023-07-28T10:44:32;2.67;;;1.50;;
41311;SDS011;27061;41.648;24.568;2023-07-28T10:46:59;6.53;;;1.65;;
41311;SDS011;27061;41.648;24.568;2023-07-28T10:49:27;7.93;;;1.55;;
41311;SDS011;27061;41.648;24.568;2023-07-28T10:51:55;2.22;;;1.65;;
41311;SDS011;27061;41.648;24.568;2023-07-28T10:54:22;15.63;;;1.90;;
41311;SDS011;27061;41.648;24.568;2023-07-28T10:56:49;10.00;;;2.15;;
41311;SDS011;27061;41.648;24.568;2023-07-28T10:59:19;3.20;;;1.50;;
41311;SDS011;27061;41.648;24.568;2023-07-28T11:01:47;4.82;;;1.42;;
41311;SDS011;27061;41.648;24.568;2023-07-28T11:04:16;6.15;;;1.50;;
41311;SDS011;27061;41.648;24.568;2023-07-28T11:06:45;2.50;;;1.65;;
41311;SDS011;27061;41.648;24.568;2023-07-28T11:09:14;3.58;;;1.67;;
41311;SDS011;27061;41.648;24.568;2023-07-28T11:11:44;33.05;;;2.22;;
41311;SDS011;27061;41.648;24.568;2023-07-28T11:14:14;2.78;;;1.52;;
41311;SDS011;27061;41.648;24.568;2023-07-28T11:16:46;11.07;;;2.05;;
41311;SDS011;27061;41.648;24.568;2023-07-28T11:19:17;10.43;;;1.85;;
41311;SDS011;27061;41.648;24.568;2023-07-28T11:21:51;1.95;;;1.52;;
41311;SDS011;27061;41.648;24.568;2023-07-28T11:24:20;5.88;;;1.40;;
41311;SDS011;27061;41.648;24.568;2023-07-28T11:26:48;1.50;;;1.40;;
41311;SDS011;27061;41.648;24.568;2023-07-28T11:29:17;6.88;;;1.38;;
41311;SDS011;27061;41.648;24.568;2023-07-28T11:31:46;3.40;;;1.08;;
41311;SDS011;27061;41.648;24.568;2023-07-28T11:34:15;2.95;;;1.33;;
41311;SDS011;27061;41.648;24.568;2023-07-28T11:36:43;1.35;;;1.27;;
41311;SDS011;27061;41.648;24.568;2023-07-28T11:39:10;4.65;;;1.60;;
41311;SDS011;27061;41.648;24.568;2023-07-28T11:41:39;6.90;;;1.85;;
41311;SDS011;27061;41.648;24.568;2023-07-28T11:44:07;5.90;;;1.70;;
41311;SDS011;27061;41.648;24.568;2023-07-28T11:46:38;2.50;;;1.42;;
41311;SDS011;27061;41.648;24.568;2023-07-28T11:49:08;4.72;;;1.30;;
41311;SDS011;27061;41.648;24.568;2023-07-28T11:51:39;6.28;;;1.55;;
41311;SDS011;27061;41.648;24.568;2023-07-28T11:54:11;1.42;;;1.33;;
41311;SDS011;27061;41.648;24.568;2023-07-28T11:56:43;1.27;;;1.27;;
41311;SDS011;27061;41.648;24.568;2023-07-28T11:59:11;3.47;;;1.33;;
41311;SDS011;27061;41.648;24.568;2023-07-28T12:02:02;4.00;;;2.60;;
41311;SDS011;27061;41.648;24.568;2023-07-28T12:04:36;11.18;;;1.60;;
41311;SDS011;27061;41.648;24.568;2023-07-28T12:07:11;1.50;;;1.40;;
41311;SDS011;27061;41.648;24.568;2023-07-28T12:12:23;2.72;;;1.42;;
41311;SDS011;27061;41.648;24.568;2023-07-28T12:14:53;6.00;;;1.40;;
41311;SDS011;27061;41.648;24.568;2023-07-28T12:17:23;1.83;;;1.45;;
41311;SDS011;27061;41.648;24.568;2023-07-28T12:20:13;3.08;;;1.52;;
41311;SDS011;27061;41.648;24.568;2023-07-28T12:22:42;2.22;;;1.65;;
41311;SDS011;27061;41.648;24.568;2023-07-28T12:25:11;3.67;;;1.42;;
41311;SDS011;27061;41.648;24.568;2023-07-28T12:27:39;4.60;;;1.55;;
41311;SDS011;27061;41.648;24.568;2023-07-28T12:30:06;1.42;;;1.42;;
41311;SDS011;27061;41.648;24.568;2023-07-28T12:32:38;6.78;;;1.77;;
41311;SDS011;27061;41.648;24.568;2023-07-28T12:35:26;13.38;;;6.13;;
41311;SDS011;27061;41.648;24.568;2023-07-28T12:38:00;7.28;;;1.92;;
41311;SDS011;27061;41.648;24.568;2023-07-28T12:40:34;1.63;;;1.50;;
41311;SDS011;27061;41.648;24.568;2023-07-28T12:43:05;4.05;;;1.60;;
41311;SDS011;27061;41.648;24.568;2023-07-28T12:45:33;2.50;;;1.73;;
41311;SDS011;27061;41.648;24.568;2023-07-28T12:48:03;6.82;;;1.40;;
41311;SDS011;27061;41.648;24.568;2023-07-28T12:50:33;1.25;;;1.15;;
41311;SDS011;27061;41.648;24.568;2023-07-28T12:53:03;2.40;;;1.58;;
41311;SDS011;27061;41.648;24.568;2023-07-28T12:55:41;3.58;;;1.58;;
41311;SDS011;27061;41.648;24.568;2023-07-28T12:58:26;1.85;;;1.30;;
41311;SDS011;27061;41.648;24.568;2023-07-28T13:00:56;5.32;;;1.23;;
41311;SDS011;27061;41.648;24.568;2023-07-28T13:03:27;2.25;;;1.50;;
41311;SDS011;27061;41.648;24.568;2023-07-28T13:05:54;1.17;;;1.17;;
41311;SDS011;27061;41.648;24.568;2023-07-28T13:08:21;1.63;;;1.52;;
41311;SDS011;27061;41.648;24.568;2023-07-28T13:10:51;1.40;;;1.40;;
41311;SDS011;27061;41.648;24.568;2023-07-28T13:13:21;7.32;;;1.30;;
41311;SDS011;27061;41.648;24.568;2023-07-28T13:15:48;1.50;;;1.40;;
41311;SDS011;27061;41.648;24.568;2023-07-28T13:18:16;8.88;;;1.70;;
41311;SDS011;27061;41.648;24.568;2023-07-28T13:20:43;7.93;;;1.55;;
41311;SDS011;27061;41.648;24.568;2023-07-28T13:23:10;1.67;;;1.55;;
41311;SDS011;27061;41.648;24.568;2023-07-28T13:25:37;1.13;;;1.13;;
41311;SDS011;27061;41.648;24.568;2023-07-28T13:28:05;4.45;;;3.42;;
41311;SDS011;27061;41.648;24.568;2023-07-28T13:30:36;1.40;;;1.30;;
41311;SDS011;27061;41.648;24.568;2023-07-28T13:33:03;1.50;;;1.40;;
41311;SDS011;27061;41.648;24.568;2023-07-28T13:35:32;4.88;;;2.80;;
41311;SDS011;27061;41.648;24.568;2023-07-28T13:38:02;1.60;;;1.50;;
41311;SDS011;27061;41.648;24.568;2023-07-28T13:40:29;2.03;;;1.65;;
41311;SDS011;27061;41.648;24.568;2023-07-28T13:42:56;1.20;;;1.20;;
41311;SDS011;27061;41.648;24.568;2023-07-28T13:45:23;1.70;;;1.60;;
41311;SDS011;27061;41.648;24.568;2023-07-28T13:47:54;1.40;;;1.38;;
41311;SDS011;27061;41.648;24.568;2023-07-28T13:50:21;1.42;;;1.35;;
41311;SDS011;27061;41.648;24.568;2023-07-28T13:53:03;1.50;;;1.40;;
41311;SDS011;27061;41.648;24.568;2023-07-28T13:55:33;2.55;;;1.58;;
41311;SDS011;27061;41.648;24.568;2023-07-28T13:58:03;1.80;;;1.52;;
41311;SDS011;27061;41.648;24.568;2023-07-28T14:00:31;5.75;;;1.95;;
41311;SDS011;27061;41.648;24.568;2023-07-28T14:02:58;2.03;;;1.85;;
41311;SDS011;27061;41.648;24.568;2023-07-28T14:05:25;7.93;;;2.17;;
41311;SDS011;27061;41.648;24.568;2023-07-28T14:07:53;1.80;;;1.70;;
41311;SDS011;27061;41.648;24.568;2023-07-28T14:10:20;8.05;;;1.73;;
41311;SDS011;27061;41.648;24.568;2023-07-28T14:12:48;6.60;;;2.00;;
41311;SDS011;27061;41.648;24.568;2023-07-28T14:15:15;1.52;;;1.40;;
41311;SDS011;27061;41.648;24.568;2023-07-28T14:17:42;8.38;;;1.83;;
41311;SDS011;27061;41.648;24.568;2023-07-28T14:20:10;1.70;;;1.60;;
41311;SDS011;27061;41.648;24.568;2023-07-28T14:22:37;1.65;;;1.50;;
41311;SDS011;27061;41.648;24.568;2023-07-28T14:25:04;2.30;;;1.55;;
41311;SDS011;27061;41.648;24.568;2023-07-28T14:27:32;1.75;;;1.50;;
41311;SDS011;27061;41.648;24.568;2023-07-28T14:29:59;3.25;;;2.10;;
41311;SDS011;27061;41.648;24.568;2023-07-28T14:32:26;4.72;;;1.90;;
41311;SDS011;27061;41.648;24.568;2023-07-28T14:34:53;1.67;;;1.58;;
41311;SDS011;27061;41.648;24.568;2023-07-28T14:37:21;1.70;;;1.60;;
41311;SDS011;27061;41.648;24.568;2023-07-28T14:39:48;1.67;;;1.58;;
41311;SDS011;27061;41.648;24.568;2023-07-28T14:42:15;3.88;;;1.80;;
41311;SDS011;27061;41.648;24.568;2023-07-28T14:44:43;2.80;;;1.52;;
41311;SDS011;27061;41.648;24.568;2023-07-28T14:47:10;4.47;;;2.65;;
41311;SDS011;27061;41.648;24.568;2023-07-28T14:49:37;5.75;;;2.65;;
41311;SDS011;27061;41.648;24.568;2023-07-28T14:52:04;3.22;;;1.48;;
41311;SDS011;27061;41.648;24.568;2023-07-28T14:54:32;1.88;;;1.77;;
41311;SDS011;27061;41.648;24.568;2023-07-28T14:56:59;1.83;;;1.73;;
41311;SDS011;27061;41.648;24.568;2023-07-28T14:59:26;2.78;;;1.85;;
41311;SDS011;27061;41.648;24.568;2023-07-28T15:01:53;3.75;;;1.83;;
41311;SDS011;27061;41.648;24.568;2023-07-28T15:04:20;2.00;;;1.55;;